createdAt,value
2022-10-23T00:01:24.629Z,82.27
2022-10-23T00:03:52.933Z,82.00
2022-10-23T00:06:19.859Z,82.20
2022-10-23T00:08:48.335Z,82.32
2022-10-23T00:11:18.084Z,82.25
2022-10-23T00:13:45.683Z,82.21
2022-10-23T00:16:12.792Z,81.99
2022-10-23T00:18:39.954Z,81.93
2022-10-23T00:21:08.769Z,81.92
2022-10-23T00:23:35.815Z,82.30
2022-10-23T00:26:03.503Z,81.94
2022-10-23T00:28:31.001Z,82.17
2022-10-23T00:30:57.922Z,82.40
2022-10-23T00:33:24.828Z,82.37
2022-10-23T00:35:51.710Z,82.24
2022-10-23T00:38:18.600Z,82.23
2022-10-23T00:43:24.175Z,82.64
2022-10-23T00:45:51.365Z,82.31
2022-10-23T00:48:18.604Z,82.51
2022-10-23T00:50:47.660Z,82.58
2022-10-23T00:53:14.819Z,82.58
2022-10-23T00:55:47.064Z,82.09
2022-10-23T00:58:14.926Z,82.64
2022-10-23T01:03:28.404Z,82.12
2022-10-23T01:06:20.159Z,82.18
2022-10-23T01:08:50.998Z,82.47
2022-10-23T01:11:32.859Z,82.25
2022-10-23T01:14:32.132Z,82.49
2022-10-23T01:17:04.805Z,82.60
2022-10-23T01:20:01.618Z,82.48
2022-10-23T01:22:52.149Z,82.69
2022-10-23T01:25:22.073Z,82.80
2022-10-23T01:27:53.141Z,82.81
2022-10-23T01:30:20.098Z,82.66
2022-10-23T01:32:55.759Z,82.72
2022-10-23T01:35:22.472Z,82.65
2022-10-23T01:38:05.655Z,82.68
2022-10-23T01:40:37.836Z,82.62
2022-10-23T01:43:12.173Z,82.59
2022-10-23T01:45:58.750Z,82.40
2022-10-23T01:48:31.667Z,82.49
2022-10-23T01:51:01.407Z,82.31
2022-10-23T01:53:30.809Z,82.68
2022-10-23T01:55:58.442Z,82.77
2022-10-23T01:58:25.676Z,82.63
2022-10-23T02:00:53.035Z,82.66
2022-10-23T02:03:19.928Z,82.57
2022-10-23T02:05:46.857Z,82.76
2022-10-23T02:08:13.750Z,82.77
2022-10-23T02:11:04.861Z,82.68
2022-10-23T02:13:34.586Z,82.81
2022-10-23T02:16:16.449Z,82.58
2022-10-23T02:18:52.677Z,82.98
2022-10-23T02:21:26.856Z,82.92
2022-10-23T02:24:05.994Z,82.88
2022-10-23T02:26:42.289Z,82.94
2022-10-23T02:29:11.637Z,83.13
2022-10-23T02:31:38.543Z,83.04
2022-10-23T02:34:05.547Z,83.04
2022-10-23T02:36:32.427Z,83.23
2022-10-23T02:39:01.864Z,82.94
2022-10-23T02:41:31.883Z,83.21
2022-10-23T02:44:17.773Z,83.21
2022-10-23T02:47:01.672Z,83.10
2022-10-23T02:49:56.460Z,83.23
2022-10-23T02:52:53.099Z,83.32
2022-10-23T02:55:46.900Z,83.25
2022-10-23T02:58:31.824Z,83.41
2022-10-23T03:01:20.198Z,82.94
2022-10-23T03:03:55.632Z,83.05
2022-10-23T03:06:23.110Z,83.42
2022-10-23T03:09:08.332Z,83.05
2022-10-23T03:11:35.489Z,83.20
2022-10-23T03:14:02.385Z,83.33
2022-10-23T03:16:30.123Z,83.41
2022-10-23T03:18:57.110Z,83.25
2022-10-23T03:21:23.987Z,83.52
2022-10-23T03:23:51.045Z,83.61
2022-10-23T03:26:18.054Z,83.54
2022-10-23T03:28:45.017Z,83.65
2022-10-23T03:31:12.033Z,83.66
2022-10-23T03:33:39.103Z,83.56
2022-10-23T03:36:06.195Z,83.74
2022-10-23T03:38:33.093Z,83.60
2022-10-23T03:41:00.125Z,83.62
2022-10-23T03:43:27.255Z,83.41
2022-10-23T03:45:55.717Z,83.68
2022-10-23T03:48:24.972Z,83.66
2022-10-23T03:50:53.191Z,83.57
2022-10-23T03:53:20.068Z,83.53
2022-10-23T03:55:47.103Z,83.56
2022-10-23T03:58:14.063Z,83.51
2022-10-23T04:00:40.954Z,83.51
2022-10-23T04:03:07.933Z,83.42
2022-10-23T04:05:36.013Z,83.25
2022-10-23T04:08:02.895Z,83.60
2022-10-23T04:10:29.846Z,83.66
2022-10-23T04:12:56.909Z,83.59
2022-10-23T04:15:23.833Z,83.31
2022-10-23T04:17:52.273Z,83.25
2022-10-23T04:20:19.193Z,83.19
2022-10-23T04:22:46.281Z,83.36
2022-10-23T04:25:13.459Z,83.57
2022-10-23T04:27:40.472Z,83.42
2022-10-23T04:30:08.379Z,83.54
2022-10-23T04:32:35.453Z,83.27
2022-10-23T04:35:02.326Z,83.62
2022-10-23T04:37:31.730Z,83.49
2022-10-23T04:39:59.025Z,83.31
2022-10-23T04:44:52.831Z,83.51
2022-10-23T04:47:19.872Z,83.29
2022-10-23T04:49:46.758Z,83.52
2022-10-23T04:52:13.641Z,83.38
2022-10-23T04:54:40.689Z,83.34
2022-10-23T04:57:07.626Z,83.48
2022-10-23T04:59:34.545Z,83.48
2022-10-23T05:02:01.608Z,83.56
2022-10-23T05:04:28.563Z,83.54
2022-10-23T05:06:55.492Z,83.69
2022-10-23T05:09:22.521Z,83.37
2022-10-23T05:11:49.545Z,83.75
2022-10-23T05:14:20.607Z,83.61
2022-10-23T05:16:56.113Z,83.48
2022-10-23T05:19:28.105Z,83.72
2022-10-23T05:21:56.051Z,83.63
2022-10-23T05:24:23.627Z,83.60
2022-10-23T05:26:53.417Z,83.42
2022-10-23T05:29:20.849Z,83.49
2022-10-23T05:31:48.605Z,83.65
2022-10-23T05:34:16.061Z,83.62
2022-10-23T05:36:42.937Z,83.74
2022-10-23T05:39:09.900Z,83.59
2022-10-23T05:41:37.079Z,83.56
2022-10-23T05:44:03.975Z,83.76
2022-10-23T05:46:31.267Z,83.91
2022-10-23T05:51:45.172Z,83.56
2022-10-23T05:54:12.047Z,83.76
2022-10-23T05:56:44.552Z,83.99
2022-10-23T05:59:11.555Z,83.70
2022-10-23T06:01:38.764Z,83.93
2022-10-23T06:04:05.745Z,83.83
2022-10-23T06:06:32.731Z,84.09
2022-10-23T06:08:59.959Z,83.84
2022-10-23T06:11:26.824Z,83.85
2022-10-23T06:13:53.785Z,83.91
2022-10-23T06:16:24.684Z,84.02
2022-10-23T06:18:54.812Z,84.00
2022-10-23T06:21:22.048Z,84.24
2022-10-23T06:23:49.087Z,84.07
2022-10-23T06:26:17.128Z,84.37
2022-10-23T06:28:44.028Z,84.34
2022-10-23T06:31:13.153Z,84.26
2022-10-23T06:33:40.259Z,84.25
2022-10-23T06:36:10.261Z,84.43
2022-10-23T06:38:40.421Z,84.44
2022-10-23T06:41:11.949Z,84.50
2022-10-23T06:43:38.964Z,84.56
2022-10-23T06:46:05.866Z,84.66
2022-10-23T06:48:32.929Z,84.36
2022-10-23T06:51:03.788Z,84.74
2022-10-23T06:53:34.053Z,84.62
2022-10-23T06:56:01.669Z,84.74
2022-10-23T06:58:28.671Z,84.85
2022-10-23T07:00:55.913Z,84.67
2022-10-23T07:03:24.604Z,85.03
2022-10-23T07:05:52.181Z,84.82
2022-10-23T07:08:19.183Z,84.78
2022-10-23T07:10:46.168Z,85.09
2022-10-23T07:13:13.085Z,85.18
2022-10-23T07:15:40.449Z,85.06
2022-10-23T07:18:07.345Z,85.18
2022-10-23T07:20:34.485Z,85.21
2022-10-23T07:23:01.607Z,85.42
2022-10-23T07:25:28.547Z,85.43
2022-10-23T07:27:56.740Z,85.29
2022-10-23T07:30:24.416Z,85.38
2022-10-23T07:32:54.188Z,85.59
2022-10-23T07:35:21.182Z,85.54
2022-10-23T07:37:48.910Z,85.55
2022-10-23T07:40:17.330Z,85.79
2022-10-23T07:42:44.326Z,85.76
2022-10-23T07:45:12.628Z,85.99
2022-10-23T07:47:39.561Z,85.98
2022-10-23T07:50:06.901Z,85.85
2022-10-23T07:52:36.226Z,85.89
2022-10-23T07:55:03.273Z,85.96
2022-10-23T07:57:30.281Z,86.05
2022-10-23T07:59:57.585Z,86.35
2022-10-23T08:02:24.539Z,86.43
2022-10-23T08:04:52.243Z,86.37
2022-10-23T08:07:19.367Z,86.37
2022-10-23T08:09:46.259Z,86.30
2022-10-23T08:12:13.216Z,86.48
2022-10-23T08:14:40.587Z,86.68
2022-10-23T08:17:09.917Z,86.78
2022-10-23T08:19:37.235Z,86.79
2022-10-23T08:22:04.661Z,86.97
2022-10-23T08:24:31.565Z,87.09
2022-10-23T08:26:58.807Z,86.96
2022-10-23T08:29:26.076Z,87.28
2022-10-23T08:31:55.980Z,87.24
2022-10-23T08:34:23.290Z,87.31
2022-10-23T08:36:50.828Z,87.36
2022-10-23T08:39:17.768Z,87.20
2022-10-23T08:41:53.623Z,87.47
2022-10-23T08:44:48.894Z,87.52
2022-10-23T08:47:19.070Z,87.11
2022-10-23T08:49:49.971Z,87.63
2022-10-23T08:52:36.798Z,87.57
2022-10-23T08:55:17.821Z,87.45
2022-10-23T08:58:01.557Z,87.73
2022-10-23T09:00:28.676Z,87.56
2022-10-23T09:02:55.661Z,87.79
2022-10-23T09:05:27.992Z,87.80
2022-10-23T09:08:09.656Z,87.81
2022-10-23T09:11:01.885Z,87.86
2022-10-23T09:13:50.576Z,87.83
2022-10-23T09:16:23.482Z,87.97
2022-10-23T09:18:50.683Z,88.06
2022-10-23T09:21:17.603Z,87.92
2022-10-23T09:23:44.722Z,87.97
2022-10-23T09:26:16.525Z,88.15
2022-10-23T09:28:48.013Z,88.26
2022-10-23T09:31:15.706Z,88.04
2022-10-23T09:33:42.657Z,88.09
2022-10-23T09:36:21.663Z,88.33
2022-10-23T09:38:50.058Z,88.27
2022-10-23T09:41:38.731Z,88.28
2022-10-23T09:44:08.485Z,88.43
2022-10-23T09:46:44.461Z,88.31
2022-10-23T09:49:30.408Z,88.21
2022-10-23T09:52:03.290Z,88.40
2022-10-23T09:54:36.836Z,88.58
2022-10-23T09:57:28.565Z,88.34
2022-10-23T10:00:19.992Z,88.52
2022-10-23T10:03:00.700Z,88.62
2022-10-23T10:05:33.953Z,88.63
2022-10-23T10:08:07.415Z,88.28
2022-10-23T10:10:43.764Z,88.27
2022-10-23T10:13:33.864Z,88.54
2022-10-23T10:16:04.041Z,88.51
2022-10-23T10:18:44.791Z,88.48
2022-10-23T10:21:44.366Z,88.30
2022-10-23T10:24:40.682Z,88.19
2022-10-23T10:27:28.128Z,88.35
2022-10-23T10:30:07.390Z,88.62
2022-10-23T10:32:55.692Z,88.14
2022-10-23T10:35:29.305Z,88.57
2022-10-23T10:38:26.737Z,88.50
2022-10-23T10:41:17.418Z,88.30
2022-10-23T10:43:52.087Z,88.52
2022-10-23T10:46:25.018Z,88.38
2022-10-23T10:49:21.325Z,88.66
2022-10-23T10:51:48.569Z,88.46
2022-10-23T10:54:33.189Z,88.58
2022-10-23T10:57:00.816Z,88.42
2022-10-23T10:59:29.546Z,88.51
2022-10-23T11:02:37.968Z,88.33
2022-10-23T11:05:24.510Z,88.34
2022-10-23T11:07:57.855Z,88.45
2022-10-23T11:10:24.823Z,88.46
2022-10-23T11:12:52.493Z,88.66
2022-10-23T11:15:23.233Z,88.50
2022-10-23T11:18:01.554Z,88.57
2022-10-23T11:20:45.147Z,88.29
2022-10-23T11:23:19.873Z,88.52
2022-10-23T11:26:04.961Z,88.82
2022-10-23T11:28:52.449Z,88.63
2022-10-23T11:31:33.455Z,88.36
2022-10-23T11:34:23.306Z,88.40
2022-10-23T11:36:54.269Z,88.22
2022-10-23T11:39:23.904Z,88.49
2022-10-23T11:42:00.899Z,88.54
2022-10-23T11:44:36.817Z,88.46
2022-10-23T11:47:24.781Z,88.47
2022-10-23T11:50:06.961Z,88.17
2022-10-23T11:52:42.056Z,88.37
2022-10-23T11:55:20.916Z,88.36
2022-10-23T11:58:09.680Z,88.15
2022-10-23T12:00:40.950Z,88.33
2022-10-23T12:03:17.674Z,88.38
2022-10-23T12:05:45.803Z,88.00
2022-10-23T12:08:21.988Z,88.05
2022-10-23T12:10:53.230Z,88.26
2022-10-23T12:13:38.484Z,88.50
2022-10-23T12:16:07.593Z,88.01
2022-10-23T12:18:48.783Z,88.17
2022-10-23T12:21:21.047Z,88.32
2022-10-23T12:23:54.561Z,88.23
2022-10-23T12:26:51.988Z,87.95
2022-10-23T12:29:48.367Z,88.07
2022-10-23T12:32:22.392Z,87.88
2022-10-23T12:35:02.371Z,88.02
2022-10-23T12:38:05.367Z,88.00
2022-10-23T12:40:32.486Z,88.09
2022-10-23T12:43:03.216Z,87.90
2022-10-23T12:45:37.224Z,88.14
2022-10-23T12:48:04.367Z,87.74
2022-10-23T12:50:32.265Z,87.80
2022-10-23T12:53:03.227Z,87.71
2022-10-23T12:58:30.790Z,87.53
2022-10-23T13:01:03.158Z,87.31
2022-10-23T13:03:31.195Z,87.86
2022-10-23T13:06:04.400Z,87.59
2022-10-23T13:08:40.670Z,87.38
2022-10-23T13:11:08.716Z,87.22
2022-10-23T13:13:35.686Z,87.46
2022-10-23T13:16:02.826Z,87.74
2022-10-23T13:18:29.794Z,87.41
2022-10-23T13:20:58.680Z,87.40
2022-10-23T13:23:32.636Z,87.27
2022-10-23T13:26:21.872Z,87.24
2022-10-23T13:28:48.757Z,87.13
2022-10-23T13:31:15.557Z,87.40
2022-10-23T13:33:44.482Z,86.87
2022-10-23T13:36:14.133Z,86.88
2022-10-23T13:38:43.026Z,86.83
2022-10-23T13:41:18.841Z,86.74
2022-10-23T13:43:47.363Z,86.97
2022-10-23T13:46:15.300Z,86.73
2022-10-23T13:48:42.386Z,86.88
2022-10-23T13:51:12.122Z,86.81
2022-10-23T13:53:39.027Z,86.95
2022-10-23T13:56:06.285Z,86.70
2022-10-23T13:58:33.168Z,86.51
2022-10-23T14:01:00.318Z,86.49
2022-10-23T14:03:27.869Z,86.50
2022-10-23T14:05:54.801Z,86.89
2022-10-23T14:08:24.598Z,86.40
2022-10-23T14:10:52.062Z,86.76
2022-10-23T14:13:18.951Z,86.61
2022-10-23T14:15:53.406Z,86.36
2022-10-23T14:18:23.421Z,86.35
2022-10-23T14:20:50.821Z,86.57
2022-10-23T14:23:17.904Z,86.47
2022-10-23T14:25:44.882Z,86.08
2022-10-23T14:28:11.785Z,86.40
2022-10-23T14:30:38.742Z,85.86
2022-10-23T14:33:05.667Z,86.11
2022-10-23T14:35:32.545Z,86.09
2022-10-23T14:37:59.641Z,85.92
2022-10-23T14:40:28.592Z,85.66
2022-10-23T14:42:55.527Z,85.59
2022-10-23T14:45:22.417Z,85.88
2022-10-23T14:47:49.554Z,85.56
2022-10-23T14:50:16.441Z,85.47
2022-10-23T14:52:43.435Z,85.50
2022-10-23T14:55:10.300Z,85.51
2022-10-23T14:57:37.723Z,85.46
2022-10-23T15:00:06.046Z,85.71
2022-10-23T15:02:33.048Z,85.99
2022-10-23T15:04:59.962Z,85.46
2022-10-23T15:07:26.966Z,85.18
2022-10-23T15:09:53.937Z,85.09
2022-10-23T15:12:20.884Z,85.10
2022-10-23T15:14:47.780Z,85.16
2022-10-23T15:17:15.537Z,85.24
2022-10-23T15:19:42.908Z,85.18
2022-10-23T15:22:09.777Z,85.03
2022-10-23T15:24:36.679Z,85.08
2022-10-23T15:27:03.927Z,85.64
2022-10-23T15:29:31.005Z,85.36
2022-10-23T15:31:58.826Z,85.61
2022-10-23T15:34:28.234Z,85.46
2022-10-23T15:36:56.177Z,85.22
2022-10-23T15:39:25.151Z,85.29
2022-10-23T15:41:54.778Z,85.27
2022-10-23T15:44:27.183Z,85.37
2022-10-23T15:46:57.060Z,85.55
2022-10-23T15:49:24.924Z,85.37
2022-10-23T15:51:52.740Z,85.02
2022-10-23T15:54:22.665Z,85.44
2022-10-23T15:56:52.047Z,85.31
2022-10-23T15:59:20.714Z,85.44
2022-10-23T16:01:48.283Z,85.20
2022-10-23T16:04:16.218Z,85.56
2022-10-23T16:06:44.246Z,85.21
2022-10-23T16:09:11.342Z,85.15
2022-10-23T16:11:39.304Z,85.71
2022-10-23T16:14:06.237Z,85.48
2022-10-23T16:16:33.694Z,85.64
2022-10-23T16:19:04.677Z,85.78
2022-10-23T16:21:33.724Z,85.43
2022-10-23T16:24:01.574Z,86.00
2022-10-23T16:26:28.949Z,85.89
2022-10-23T16:29:00.910Z,85.47
2022-10-23T16:31:28.501Z,85.79
2022-10-23T16:34:00.616Z,85.57
2022-10-23T16:36:27.841Z,85.73
2022-10-23T16:38:54.805Z,85.67
2022-10-23T16:41:24.598Z,85.70
2022-10-23T16:43:52.072Z,85.75
2022-10-23T16:46:21.642Z,85.25
2022-10-23T16:48:50.163Z,85.70
2022-10-23T16:51:19.528Z,85.55
2022-10-23T16:53:46.834Z,85.74
2022-10-23T16:56:15.641Z,85.33
2022-10-23T16:58:43.017Z,85.46
2022-10-23T17:01:13.248Z,85.66
2022-10-23T17:03:42.129Z,85.63
2022-10-23T17:06:11.474Z,85.32
2022-10-23T17:08:38.844Z,84.92
2022-10-23T17:11:09.858Z,85.05
2022-10-23T17:13:39.576Z,85.35
2022-10-23T17:16:23.661Z,84.99
2022-10-23T17:18:50.839Z,84.91
2022-10-23T17:21:19.302Z,85.15
2022-10-23T17:23:46.736Z,85.08
2022-10-23T17:26:17.140Z,84.84
2022-10-23T17:28:44.343Z,85.09
2022-10-23T17:31:19.983Z,84.55
2022-10-23T17:33:48.209Z,84.48
2022-10-23T17:36:16.115Z,84.59
2022-10-23T17:38:43.809Z,84.45
2022-10-23T17:41:11.839Z,84.75
2022-10-23T17:43:39.114Z,84.31
2022-10-23T17:46:07.427Z,84.57
2022-10-23T17:48:35.157Z,84.29
2022-10-23T17:51:07.618Z,84.51
2022-10-23T17:53:35.951Z,84.33
2022-10-23T17:56:04.082Z,84.49
2022-10-23T17:58:31.350Z,84.49
2022-10-23T18:01:03.848Z,84.44
2022-10-23T18:03:30.920Z,84.83
2022-10-23T18:05:57.964Z,84.88
2022-10-23T18:08:24.981Z,84.45
2022-10-23T18:10:52.048Z,84.38
2022-10-23T18:13:18.975Z,84.31
2022-10-23T18:15:46.674Z,84.29
2022-10-23T18:18:13.576Z,84.35
2022-10-23T18:20:41.013Z,84.50
2022-10-23T18:23:08.328Z,84.15
2022-10-23T18:25:35.313Z,84.16
2022-10-23T18:28:02.655Z,83.88
2022-10-23T18:30:29.894Z,84.05
2022-10-23T18:32:58.241Z,83.75
2022-10-23T18:35:25.302Z,83.67
2022-10-23T18:37:52.243Z,83.98
2022-10-23T18:40:19.933Z,84.08
2022-10-23T18:42:48.279Z,84.13
2022-10-23T18:45:15.412Z,83.97
2022-10-23T18:47:42.680Z,84.26
2022-10-23T18:50:10.081Z,83.94
2022-10-23T18:52:37.027Z,83.57
2022-10-23T18:55:06.091Z,83.72
2022-10-23T18:57:33.732Z,83.58
2022-10-23T19:00:01.433Z,83.53
2022-10-23T19:02:28.682Z,84.06
2022-10-23T19:04:55.685Z,83.43
2022-10-23T19:07:22.625Z,83.36
2022-10-23T19:09:49.533Z,83.44
2022-10-23T19:12:17.821Z,83.45
2022-10-23T19:14:45.607Z,82.73
2022-10-23T19:17:19.602Z,83.01
2022-10-23T19:20:00.902Z,83.05
2022-10-23T19:22:29.901Z,83.20
2022-10-23T19:25:15.340Z,82.67
2022-10-23T19:27:43.190Z,82.86
2022-10-23T19:30:13.794Z,82.29
2022-10-23T19:32:41.561Z,82.26
2022-10-23T19:35:09.433Z,82.24
2022-10-23T19:37:36.483Z,82.59
2022-10-23T19:40:07.971Z,82.77
2022-10-23T19:42:35.914Z,82.53
2022-10-23T19:45:02.846Z,82.68
2022-10-23T19:47:29.892Z,83.05
2022-10-23T19:49:56.820Z,82.55
2022-10-23T19:52:23.826Z,82.83
2022-10-23T19:54:51.166Z,82.78
2022-10-23T19:57:20.550Z,82.70
2022-10-23T19:59:52.989Z,82.96
2022-10-23T20:02:22.736Z,82.63
2022-10-23T20:04:49.742Z,82.83
2022-10-23T20:07:16.921Z,82.41
2022-10-23T20:09:43.833Z,82.46
2022-10-23T20:12:10.728Z,82.54
2022-10-23T20:14:37.597Z,82.38
2022-10-23T20:17:05.180Z,82.39
2022-10-23T20:19:32.158Z,82.54
2022-10-23T20:21:59.296Z,82.28
2022-10-23T20:24:26.421Z,82.12
2022-10-23T20:26:54.788Z,82.43
2022-10-23T20:29:22.313Z,82.01
2022-10-23T20:31:53.170Z,82.42
2022-10-23T20:34:20.655Z,81.91
2022-10-23T20:36:49.394Z,82.13
2022-10-23T20:39:25.656Z,82.02
2022-10-23T20:41:55.407Z,82.47
2022-10-23T20:44:23.175Z,82.09
2022-10-23T20:46:50.941Z,81.86
2022-10-23T20:49:19.000Z,82.23
2022-10-23T20:51:54.086Z,82.15
2022-10-23T20:54:25.023Z,82.13
2022-10-23T20:56:57.184Z,82.05
2022-10-23T20:59:24.737Z,82.05
2022-10-23T21:01:53.732Z,82.21
2022-10-23T21:04:28.574Z,82.28
2022-10-23T21:07:09.540Z,82.32
2022-10-23T21:09:38.015Z,82.38
2022-10-23T21:12:06.812Z,82.69
2022-10-23T21:14:34.182Z,82.75
2022-10-23T21:17:01.240Z,82.41
2022-10-23T21:19:28.442Z,82.85
2022-10-23T21:21:55.407Z,82.42
2022-10-23T21:24:22.302Z,82.51
2022-10-23T21:26:49.263Z,82.34
2022-10-23T21:29:19.110Z,82.28
2022-10-23T21:31:58.062Z,82.78
2022-10-23T21:34:25.672Z,82.59
2022-10-23T21:37:13.358Z,82.58
2022-10-23T21:39:39.673Z,82.32
2022-10-23T21:42:06.671Z,81.79
2022-10-23T21:44:33.689Z,82.38
2022-10-23T21:47:00.861Z,82.05
2022-10-23T21:49:27.953Z,82.02
2022-10-23T21:51:55.266Z,81.92
2022-10-23T21:54:22.478Z,81.73
2022-10-23T21:56:51.864Z,81.94
2022-10-23T21:59:20.734Z,81.54
2022-10-23T22:01:48.600Z,81.69
2022-10-23T22:04:17.456Z,81.54
2022-10-23T22:06:45.197Z,81.52
2022-10-23T22:09:14.569Z,81.47
2022-10-23T22:11:41.543Z,81.25
2022-10-23T22:14:08.476Z,81.31
2022-10-23T22:16:35.429Z,81.39
2022-10-23T22:19:02.372Z,81.15
2022-10-23T22:21:30.322Z,81.23
2022-10-23T22:23:58.514Z,81.34
2022-10-23T22:26:28.121Z,81.38
2022-10-23T22:28:56.791Z,81.40
2022-10-23T22:31:30.689Z,81.15
2022-10-23T22:33:58.146Z,80.96
2022-10-23T22:36:25.436Z,81.40
2022-10-23T22:38:52.621Z,81.26
2022-10-23T22:41:19.898Z,81.20
2022-10-23T22:43:46.832Z,81.31
2022-10-23T22:46:18.470Z,81.32
2022-10-23T22:48:45.746Z,81.53
2022-10-23T22:51:14.389Z,81.57
2022-10-23T22:53:41.456Z,81.74
2022-10-23T22:56:14.270Z,81.57
2022-10-23T22:58:41.412Z,81.64
2022-10-23T23:01:28.252Z,81.47
2022-10-23T23:03:58.153Z,81.89
2022-10-23T23:06:25.241Z,82.17
2022-10-23T23:08:52.321Z,81.87
2022-10-23T23:11:20.601Z,82.18
2022-10-23T23:13:48.168Z,82.24
2022-10-23T23:16:18.750Z,82.00
2022-10-23T23:18:45.636Z,82.57
2022-10-23T23:21:12.669Z,82.30
2022-10-23T23:23:39.544Z,82.70
2022-10-23T23:26:06.672Z,82.71
2022-10-23T23:28:33.549Z,82.42
2022-10-23T23:31:17.043Z,82.59
2022-10-23T23:33:44.106Z,83.17
2022-10-23T23:36:13.015Z,83.36
2022-10-23T23:38:40.243Z,83.25
2022-10-23T23:41:07.409Z,82.93
2022-10-23T23:43:34.321Z,83.20
2022-10-23T23:46:01.475Z,82.98
2022-10-23T23:48:28.391Z,83.47
2022-10-23T23:50:55.280Z,83.31
2022-10-23T23:53:22.366Z,82.92
2022-10-23T23:55:49.260Z,83.23
2022-10-23T23:58:16.175Z,82.95
